BEC weather

Becerril Airport
Becerril, César Department, Colombia

Public forecast

Using degrees Celsius for public forecast. Weather courtesy of forecast.io.

Closest aviation weather report (METAR) to Becerril Airport

Closest report is Alfonso López Pumarejo Airport, 46.4 nm (85.9 km) N. Retrieved 2019/12/06 15:00 UTC (19 minutes ago):

SKVP 061500Z 07014KT 9999 FEW020 32/21 A2995

Closest aviation forecast (TAF) to Becerril Airport

Forecast is more than 12 hours old.

Closest forecast is Villa del Rosario Airport, 69.7 nm (129.1 km) NE. Retrieved 2019/09/09 18:00 UTC (3 months ago):

TAF SVVS 091700Z 0918/1018 18004KT 9999 BKN016 TX30/0919Z TN22/1008Z TEMPO 0919/0921 9000 DZ TEMPO 0922/1002 24005KT 9999 SCT016 SCT150